KCNU/CNU METAR and TAF weather

Enter ICAO airport designator
Station Type Date Time Source
KCNU METAR 2021/05/15 01:52 UTC NOAA

KCNU 150152Z AUTO 12007KT 10SM SCT085 BKN110 16/12 A3010 RMK AO2 SLP191 T01560122


Station Type Date Time Source
KCNU Decoded METAR 2021/05/15 01:52 UTC NOAA

CHANUTE JOHNSON AIRPORT, KS, United States (KCNU) 37-40N 95-29W 297M
May 14, 2021 - 09:52 PM EDT / 2021.05.15 0152 UTC
Wind: from the ESE (120 degrees) at 8 MPH (7 KT):0
Visibility: 10 mile(s):0
Sky conditions: mostly cloudy
Temperature: 60.1 F (15.6 C)
Dew Point: 54.0 F (12.2 C)
Relative Humidity: 80%
Pressure (altimeter): 30.1 in. Hg (1019 hPa)
ob: KCNU 150152Z AUTO 12007KT 10SM SCT085 BKN110 16/12 A3010 RMK AO2 SLP191 T01560122
cycle: 2

Station Type Date Time Source
KCNU TAF 2021/05/14 23:27 UTC NOAA

TAF
AMD KCNU 142323Z 1423/1518 16012KT P6SM VCSH SCT060 OVC100
TEMPO 1423/1501 -TSRA BKN060CB
FM150200 16010KT P6SM SCT120
FM150800 16010KT P6SM SHRA VCTS BKN040CB
FM151200 16010KT P6SM SHRA BKN020

Example: see airport list